Thursday, January 17, 2019, 7:02 AM EST
Back to Local

KIJD, Willimantic Windham Airport

Location: North Windham, CT, United States Lat: 41.75
Local Time: 7:02 AM EST (12:02 GMT) Lon: -72.183
Time Zone: US/Eastern Elev: 246 ft

Show me the last for .
Show Decoded

2019-01-17 06:52 METAR KIJD 171152Z AUTO 33005KT 10SM CLR M07/M17 A3035 RMK AO2 SLP281 T10671172
                 11028 21067 53021 =
2019-01-17 05:52 METAR KIJD 171052Z AUTO 31006KT 10SM CLR M06/M16 A3032 RMK AO2 SLP271 T10611156
                 =
2019-01-17 04:52 METAR KIJD 170952Z AUTO 34009G16KT 10SM CLR M06/M14 A3030 RMK AO2 SLP265
                 T10561139 =
2019-01-17 03:52 METAR KIJD 170852Z AUTO 35005G16KT 10SM CLR M05/M13 A3029 RMK AO2 SLP259
                 T10501128 51029 =
2019-01-17 02:52 METAR KIJD 170752Z AUTO 32005KT 10SM CLR M04/M11 A3027 RMK AO2 SLP251 T10391111
                 =
2019-01-17 01:52 METAR KIJD 170652Z AUTO 32006KT 10SM CLR M03/M11 A3024 RMK AO2 SLP241 T10331106
                 =
2019-01-17 00:52 METAR KIJD 170552Z AUTO 31007KT 10SM CLR M03/M11 A3020 RMK AO2 SLP229 T10281106
                 10022 21028 51025 =
2019-01-16 23:52 METAR KIJD 170452Z AUTO 30009G15KT 10SM CLR M02/M11 A3019 RMK AO2 SLP227
                 T10171106 400281106 =
2019-01-16 22:52 METAR KIJD 170352Z AUTO 32009G17KT 10SM CLR M01/M11 A3016 RMK AO2 PK WND
                 28028/0330 SLP215 T10111111 =
2019-01-16 21:52 METAR KIJD 170252Z AUTO 32011G18KT 10SM CLR 00/M09 A3013 RMK AO2 SLP205
                 T00001089 53033 =
2019-01-16 20:52 METAR KIJD 170152Z AUTO 31011G20KT 10SM FEW047 BKN055 02/M06 A3009 RMK AO2
                 SLP191 T00171056 =
2019-01-16 19:52 METAR KIJD 170052Z AUTO 23003KT 10SM OVC055 01/M06 A3005 RMK AO2 SLP179
                 T00111056 =
2019-01-16 18:52 METAR KIJD 162352Z AUTO 20005KT 10SM OVC060 02/M06 A3003 RMK AO2 SLP172
                 T00171056 10028 20006 53016 =
2019-01-16 17:52 METAR KIJD 162252Z AUTO 23004KT 10SM OVC060 02/M06 A3001 RMK AO2 SLP166
                 T00171056 =
2019-01-16 16:52 METAR KIJD 162152Z AUTO 27004KT 10SM CLR 01/M06 A3000 RMK AO2 SLP160 T00111056 =
2019-01-16 15:52 METAR KIJD 162052Z AUTO 28008KT 10SM FEW046 02/M05 A2998 RMK AO2 SLP156
                 T00221050 53004 =
2019-01-16 14:52 METAR KIJD 161952Z AUTO 27006KT 10SM BKN041 03/M04 A2997 RMK AO2 SLP152
                 T00281044 =
2019-01-16 13:52 METAR KIJD 161852Z AUTO 23009KT 10SM SCT043 02/M04 A2996 RMK AO2 SLP149
                 T00221044 =
2019-01-16 12:52 METAR KIJD 161752Z AUTO 23007KT 10SM BKN042 01/M04 A2997 RMK AO2 SLP151
                 T00111044 10011 21106 58017 =
2019-01-16 11:52 METAR KIJD 161652Z AUTO 24007KT 10SM OVC036 00/M05 A2999 RMK AO2 SLP159
                 T00001050 =
2019-01-16 10:52 METAR KIJD 161552Z AUTO 26005KT 10SM OVC035 00/M04 A3002 RMK AO2 SLP167
                 T00001044 =
2019-01-16 09:52 METAR KIJD 161452Z AUTO 00000KT 6SM BR OVC031 M03/M06 A3002 RMK AO2 SLP168
                 T10331056 55002 =
2019-01-16 08:52 METAR KIJD 161352Z AUTO 00000KT 7SM CLR M07/M09 A3001 RMK AO2 SLP167 T10721089 =
2019-01-16 07:52 METAR KIJD 161252Z AUTO 00000KT 7SM CLR M10/M11 A3002 RMK AO2 SLP170 T11001106 =

Support USWX by starting your Amazon purchase here.